createdAt,value
2017-12-19T00:01:02.992Z,1000.77
2017-12-19T00:02:09.967Z,1000.79
2017-12-19T00:03:16.737Z,1000.74
2017-12-19T00:04:23.522Z,1000.73
2017-12-19T00:05:30.405Z,1000.75
2017-12-19T00:06:37.315Z,1000.76
2017-12-19T00:07:44.207Z,1000.74
2017-12-19T00:08:50.970Z,1000.74
2017-12-19T00:09:57.752Z,1000.83
2017-12-19T00:11:04.625Z,1000.71
2017-12-19T00:12:11.366Z,1000.71
2017-12-19T00:13:18.149Z,1000.68
2017-12-19T00:14:24.918Z,1000.75
2017-12-19T00:15:31.730Z,1000.79
2017-12-19T00:16:38.513Z,1000.75
2017-12-19T00:17:45.365Z,1000.80
2017-12-19T00:18:52.157Z,1000.72
2017-12-19T00:19:58.975Z,1000.59
2017-12-19T00:21:05.754Z,1000.53
2017-12-19T00:22:12.590Z,1000.49
2017-12-19T00:23:19.445Z,1000.41
2017-12-19T00:24:26.252Z,1000.43
2017-12-19T00:25:33.089Z,1000.44
2017-12-19T00:26:39.943Z,1000.48
2017-12-19T00:27:46.821Z,1000.44
2017-12-19T00:28:53.605Z,1000.51
2017-12-19T00:30:05.432Z,1000.46
2017-12-19T00:31:07.282Z,1000.47
2017-12-19T00:32:14.049Z,1000.43
2017-12-19T00:33:20.853Z,1000.41
2017-12-19T00:34:27.781Z,1000.43
2017-12-19T00:35:34.550Z,1000.34
2017-12-19T00:36:41.473Z,1000.34
2017-12-19T00:37:48.256Z,1000.40
2017-12-19T00:38:55.102Z,1000.44
2017-12-19T00:40:01.889Z,1000.35
2017-12-19T00:41:08.664Z,1000.33
2017-12-19T00:42:15.441Z,1000.22
2017-12-19T00:43:22.293Z,1000.32
2017-12-19T00:44:29.070Z,1000.38
2017-12-19T00:45:35.861Z,1000.50
2017-12-19T00:46:42.730Z,1000.45
2017-12-19T00:47:49.516Z,1000.50
2017-12-19T00:48:56.272Z,1000.55
2017-12-19T00:50:03.098Z,1000.59
2017-12-19T00:51:09.875Z,1000.71
2017-12-19T00:52:16.735Z,1000.62
2017-12-19T00:53:23.517Z,1000.65
2017-12-19T00:54:30.305Z,1000.73
2017-12-19T00:55:37.122Z,1000.66
2017-12-19T00:56:43.912Z,1000.73
2017-12-19T00:57:50.733Z,1000.84
2017-12-19T00:58:57.495Z,1000.93
2017-12-19T01:00:04.331Z,1000.92
2017-12-19T01:01:11.088Z,1000.86
2017-12-19T01:02:17.996Z,1000.96
2017-12-19T01:03:24.790Z,1000.97
2017-12-19T01:04:31.545Z,1000.82
2017-12-19T01:05:38.301Z,1000.84
2017-12-19T01:06:45.045Z,1000.80
2017-12-19T01:07:51.874Z,1000.80
2017-12-19T01:08:58.661Z,1000.79
2017-12-19T01:10:05.417Z,1000.88
2017-12-19T01:11:12.265Z,1000.93
2017-12-19T01:12:19.029Z,1000.92
2017-12-19T01:13:25.814Z,1000.97
2017-12-19T01:14:32.541Z,1000.99
2017-12-19T01:15:39.328Z,1000.94
2017-12-19T01:16:46.104Z,1000.94
2017-12-19T01:17:52.875Z,1000.95
2017-12-19T01:18:59.649Z,1000.99
2017-12-19T01:20:06.413Z,1001.05
2017-12-19T01:21:13.148Z,1001.06
2017-12-19T01:22:19.925Z,1001.03
2017-12-19T01:23:26.724Z,1000.99
2017-12-19T01:24:33.464Z,1001.00
2017-12-19T01:25:40.241Z,1001.03
2017-12-19T01:26:46.968Z,1001.06
2017-12-19T01:27:53.730Z,1001.13
2017-12-19T01:29:00.536Z,1001.08
2017-12-19T01:30:07.242Z,1001.17
2017-12-19T01:31:14.093Z,1001.11
2017-12-19T01:32:20.792Z,1001.09
2017-12-19T01:33:27.597Z,1001.17
2017-12-19T01:34:34.369Z,1001.27
2017-12-19T01:35:41.078Z,1001.19
2017-12-19T01:36:47.808Z,1001.27
2017-12-19T01:37:54.512Z,1001.31
2017-12-19T01:39:01.321Z,1001.33
2017-12-19T01:40:08.484Z,1001.33
2017-12-19T01:41:15.364Z,1001.32
2017-12-19T01:42:22.064Z,1001.34
2017-12-19T01:43:28.773Z,1001.30
2017-12-19T01:44:35.553Z,1001.40
2017-12-19T01:45:42.284Z,1001.41
2017-12-19T01:46:49.012Z,1001.35
2017-12-19T01:47:55.720Z,1001.43
2017-12-19T01:49:02.516Z,1001.35
2017-12-19T01:50:09.272Z,1001.34
2017-12-19T01:51:15.996Z,1001.48
2017-12-19T01:52:22.716Z,1001.50
2017-12-19T01:53:29.625Z,1001.54
2017-12-19T01:54:36.357Z,1001.66
2017-12-19T01:55:43.184Z,1001.61
2017-12-19T01:56:49.893Z,1001.60
2017-12-19T01:57:56.624Z,1001.64
2017-12-19T01:59:03.448Z,1001.60
2017-12-19T02:00:10.153Z,1001.60
2017-12-19T02:01:17.032Z,1001.59
2017-12-19T02:02:23.741Z,1001.66
2017-12-19T02:03:30.532Z,1001.73
2017-12-19T02:04:37.284Z,1001.70
2017-12-19T02:05:44.001Z,1001.68
2017-12-19T02:06:50.756Z,1001.74
2017-12-19T02:07:57.464Z,1001.73
2017-12-19T02:09:04.252Z,1001.78
2017-12-19T02:10:10.993Z,1001.80
2017-12-19T02:11:17.715Z,1001.79
2017-12-19T02:12:24.472Z,1001.91
2017-12-19T02:13:31.172Z,1001.87
2017-12-19T02:14:37.952Z,1001.96
2017-12-19T02:15:44.657Z,1001.88
2017-12-19T02:16:51.391Z,1001.88
2017-12-19T02:17:58.184Z,1001.95
2017-12-19T02:19:05.120Z,1001.83
2017-12-19T02:20:11.932Z,1001.86
2017-12-19T02:21:18.821Z,1001.90
2017-12-19T02:22:25.708Z,1001.87
2017-12-19T02:23:32.604Z,1001.96
2017-12-19T02:24:39.416Z,1001.87
2017-12-19T02:25:46.249Z,1001.87
2017-12-19T02:26:53.048Z,1001.75
2017-12-19T02:27:59.929Z,1001.91
2017-12-19T02:29:06.844Z,1001.85
2017-12-19T02:30:13.664Z,1001.87
2017-12-19T02:31:20.473Z,1001.84
2017-12-19T02:32:27.300Z,1001.82
2017-12-19T02:33:34.133Z,1001.89
2017-12-19T02:34:40.937Z,1001.92
2017-12-19T02:35:47.721Z,1002.02
2017-12-19T02:36:54.540Z,1002.01
2017-12-19T02:38:01.365Z,1001.97
2017-12-19T02:39:08.196Z,1001.96
2017-12-19T02:40:15.032Z,1001.98
2017-12-19T02:41:21.833Z,1002.09
2017-12-19T02:42:28.628Z,1002.06
2017-12-19T02:43:35.488Z,1001.93
2017-12-19T02:44:42.397Z,1001.95
2017-12-19T02:45:49.206Z,1001.89
2017-12-19T02:46:56.196Z,1002.02
2017-12-19T02:48:03.048Z,1001.91
2017-12-19T02:49:09.863Z,1001.95
2017-12-19T02:50:16.672Z,1001.97
2017-12-19T02:51:23.512Z,1001.91
2017-12-19T02:52:30.436Z,1001.92
2017-12-19T02:53:37.285Z,1001.93
2017-12-19T02:54:44.098Z,1001.91
2017-12-19T02:55:50.896Z,1001.99
2017-12-19T02:56:57.712Z,1001.97
2017-12-19T02:58:04.548Z,1001.98
2017-12-19T02:59:11.596Z,1002.02
2017-12-19T03:00:18.464Z,1001.99
2017-12-19T03:01:25.288Z,1002.00
2017-12-19T03:02:32.104Z,1002.11
2017-12-19T03:03:38.928Z,1002.11
2017-12-19T03:04:45.904Z,1002.14
2017-12-19T03:05:52.744Z,1002.09
2017-12-19T03:06:59.585Z,1002.10
2017-12-19T03:08:06.468Z,1002.07
2017-12-19T03:09:13.325Z,1002.14
2017-12-19T03:10:20.240Z,1002.11
2017-12-19T03:11:27.087Z,1002.21
2017-12-19T03:12:34.092Z,1002.19
2017-12-19T03:13:41.250Z,1002.14
2017-12-19T03:14:48.080Z,1002.13
2017-12-19T03:15:54.952Z,1002.15
2017-12-19T03:17:01.801Z,1002.12
2017-12-19T03:18:08.760Z,1002.22
2017-12-19T03:19:15.627Z,1002.30
2017-12-19T03:20:22.555Z,1002.22
2017-12-19T03:21:29.604Z,1002.24
2017-12-19T03:22:36.448Z,1002.32
2017-12-19T03:23:43.220Z,1002.34
2017-12-19T03:24:50.156Z,1002.52
2017-12-19T03:25:57.159Z,1002.40
2017-12-19T03:27:04.017Z,1002.42
2017-12-19T03:28:10.849Z,1002.37
2017-12-19T03:29:17.767Z,1002.42
2017-12-19T03:30:24.602Z,1002.44
2017-12-19T03:31:31.516Z,1002.45
2017-12-19T03:32:38.336Z,1002.54
2017-12-19T03:33:45.308Z,1002.58
2017-12-19T03:34:52.220Z,1002.60
2017-12-19T03:35:59.137Z,1002.60
2017-12-19T03:37:06.001Z,1002.56
2017-12-19T03:38:12.893Z,1002.53
2017-12-19T03:39:19.720Z,1002.61
2017-12-19T03:40:26.481Z,1002.62
2017-12-19T03:41:33.383Z,1002.57
2017-12-19T03:42:40.224Z,1002.68
2017-12-19T03:43:47.144Z,1002.67
2017-12-19T03:44:53.985Z,1002.65
2017-12-19T03:46:00.964Z,1002.65
2017-12-19T03:47:07.840Z,1002.60
2017-12-19T03:48:14.761Z,1002.54
2017-12-19T03:49:21.580Z,1002.59
2017-12-19T03:50:28.440Z,1002.61
2017-12-19T03:51:35.256Z,1002.59
2017-12-19T03:52:42.235Z,1002.65
2017-12-19T03:53:49.056Z,1002.65
2017-12-19T03:54:55.961Z,1002.69
2017-12-19T03:56:02.841Z,1002.67
2017-12-19T03:57:09.681Z,1002.71
2017-12-19T03:58:16.624Z,1002.69
2017-12-19T03:59:23.475Z,1002.69
2017-12-19T04:00:30.572Z,1002.76
2017-12-19T04:01:37.396Z,1002.76
2017-12-19T04:02:44.520Z,1002.77
2017-12-19T04:03:51.356Z,1002.75
2017-12-19T04:04:58.241Z,1002.83
2017-12-19T04:06:05.172Z,1002.82
2017-12-19T04:07:12.038Z,1002.83
2017-12-19T04:08:18.936Z,1002.83
2017-12-19T04:09:25.794Z,1002.83
2017-12-19T04:10:32.744Z,1002.88
2017-12-19T04:11:39.582Z,1002.93
2017-12-19T04:12:46.552Z,1002.85
2017-12-19T04:13:53.428Z,1002.91
2017-12-19T04:15:00.328Z,1002.89
2017-12-19T04:16:07.314Z,1002.84
2017-12-19T04:17:14.213Z,1002.84
2017-12-19T04:18:21.053Z,1002.80
2017-12-19T04:19:28.129Z,1002.90
2017-12-19T04:20:34.885Z,1002.96
2017-12-19T04:21:41.660Z,1003.03
2017-12-19T04:22:48.517Z,1002.95
2017-12-19T04:23:55.440Z,1003.02
2017-12-19T04:25:02.281Z,1002.94
2017-12-19T04:26:09.213Z,1002.98
2017-12-19T04:27:16.077Z,1002.94
2017-12-19T04:28:22.998Z,1002.94
2017-12-19T04:29:29.824Z,1002.89
2017-12-19T04:30:36.616Z,1002.93
2017-12-19T04:31:43.410Z,1002.90
2017-12-19T04:32:50.256Z,1002.92
2017-12-19T04:33:57.019Z,1002.96
2017-12-19T04:35:03.800Z,1002.89
2017-12-19T04:36:10.571Z,1002.89
2017-12-19T04:37:17.405Z,1002.86
2017-12-19T04:38:24.237Z,1002.88
2017-12-19T04:39:31.064Z,1002.94
2017-12-19T04:40:37.839Z,1002.87
2017-12-19T04:41:44.692Z,1002.86
2017-12-19T04:42:51.508Z,1002.92
2017-12-19T04:43:58.409Z,1002.99
2017-12-19T04:45:05.234Z,1002.98
2017-12-19T04:46:12.160Z,1002.89
2017-12-19T04:47:19.009Z,1003.01
2017-12-19T04:48:25.837Z,1003.02
2017-12-19T04:49:32.659Z,1003.02
2017-12-19T04:50:39.467Z,1002.91
2017-12-19T04:51:46.349Z,1002.90
2017-12-19T04:52:53.205Z,1002.92
2017-12-19T04:54:00.254Z,1003.00
2017-12-19T04:55:07.108Z,1003.04
2017-12-19T04:56:13.924Z,1003.01
2017-12-19T04:57:20.728Z,1002.99
2017-12-19T04:58:27.647Z,1003.08
2017-12-19T04:59:34.457Z,1003.14
2017-12-19T05:00:41.276Z,1003.13
2017-12-19T05:01:48.175Z,1003.04
2017-12-19T05:02:55.049Z,1002.99
2017-12-19T05:04:01.913Z,1003.08
2017-12-19T05:05:08.989Z,1003.05
2017-12-19T05:06:15.828Z,1003.14
2017-12-19T05:07:22.610Z,1003.14
2017-12-19T05:08:29.472Z,1003.19
2017-12-19T05:09:36.358Z,1003.16
2017-12-19T05:10:43.230Z,1003.15
2017-12-19T05:11:50.012Z,1003.14
2017-12-19T05:12:56.804Z,1003.07
2017-12-19T05:14:03.656Z,1003.02
2017-12-19T05:15:10.597Z,1003.08
2017-12-19T05:16:17.419Z,1003.06
2017-12-19T05:17:24.268Z,1003.06
2017-12-19T05:18:31.204Z,1003.11
2017-12-19T05:19:38.072Z,1003.15
2017-12-19T05:20:44.965Z,1003.19
2017-12-19T05:21:51.914Z,1003.21
2017-12-19T05:22:58.744Z,1003.11
2017-12-19T05:24:05.586Z,1003.14
2017-12-19T05:25:12.538Z,1003.16
2017-12-19T05:26:19.396Z,1003.20
2017-12-19T05:27:26.316Z,1003.19
2017-12-19T05:28:33.145Z,1003.24
2017-12-19T05:29:40.113Z,1003.20
2017-12-19T05:30:46.966Z,1003.24
2017-12-19T05:31:53.872Z,1003.22
2017-12-19T05:33:00.688Z,1003.18
2017-12-19T05:34:07.629Z,1003.32
2017-12-19T05:35:14.420Z,1003.35
2017-12-19T05:36:21.281Z,1003.38
2017-12-19T05:37:28.124Z,1003.37
2017-12-19T05:38:34.928Z,1003.37
2017-12-19T05:39:41.866Z,1003.46
2017-12-19T05:40:48.734Z,1003.48
2017-12-19T05:41:55.603Z,1003.46
2017-12-19T05:43:02.397Z,1003.46
2017-12-19T05:44:09.245Z,1003.42
2017-12-19T05:45:16.101Z,1003.41
2017-12-19T05:46:22.973Z,1003.50
2017-12-19T05:47:29.821Z,1003.48
2017-12-19T05:48:36.669Z,1003.51
2017-12-19T05:49:43.655Z,1003.49
2017-12-19T05:50:50.453Z,1003.41
2017-12-19T05:51:57.385Z,1003.41
2017-12-19T05:53:04.238Z,1003.41
2017-12-19T05:54:11.153Z,1003.39
2017-12-19T05:55:18.028Z,1003.45
2017-12-19T05:56:24.919Z,1003.45
2017-12-19T05:57:31.705Z,1003.37
2017-12-19T05:58:38.562Z,1003.36
2017-12-19T05:59:45.400Z,1003.39
2017-12-19T06:00:52.256Z,1003.46
2017-12-19T06:01:59.210Z,1003.44
2017-12-19T06:03:06.036Z,1003.44
2017-12-19T06:04:12.901Z,1003.59
2017-12-19T06:05:19.813Z,1003.51
2017-12-19T06:06:26.698Z,1003.57
2017-12-19T06:07:33.526Z,1003.54
2017-12-19T06:08:40.485Z,1003.49
2017-12-19T06:09:47.337Z,1003.53
2017-12-19T06:10:54.273Z,1003.54
2017-12-19T06:12:01.119Z,1003.58
2017-12-19T06:13:08.062Z,1003.61
2017-12-19T06:14:14.853Z,1003.53
2017-12-19T06:15:21.672Z,1003.53
2017-12-19T06:16:28.480Z,1003.56
2017-12-19T06:17:35.263Z,1003.56
2017-12-19T06:18:42.092Z,1003.54
2017-12-19T06:19:48.909Z,1003.56
2017-12-19T06:20:55.752Z,1003.61
2017-12-19T06:22:02.657Z,1003.59
2017-12-19T06:23:09.552Z,1003.51
2017-12-19T06:24:16.561Z,1003.54
2017-12-19T06:25:23.380Z,1003.50
2017-12-19T06:26:30.256Z,1003.53
2017-12-19T06:27:37.063Z,1003.61
2017-12-19T06:28:43.880Z,1003.54
2017-12-19T06:29:50.742Z,1003.60
2017-12-19T06:30:57.609Z,1003.60
2017-12-19T06:32:04.444Z,1003.62
2017-12-19T06:33:11.272Z,1003.63
2017-12-19T06:34:18.180Z,1003.67
2017-12-19T06:35:25.060Z,1003.67
2017-12-19T06:36:31.993Z,1003.69
2017-12-19T06:37:38.872Z,1003.77
2017-12-19T06:38:45.816Z,1003.74
2017-12-19T06:39:52.708Z,1003.70
2017-12-19T06:40:59.581Z,1003.79
2017-12-19T06:42:06.457Z,1003.77
2017-12-19T06:43:13.333Z,1003.81
2017-12-19T06:44:20.204Z,1003.86
2017-12-19T06:45:27.089Z,1003.88
2017-12-19T06:46:34.024Z,1003.85
2017-12-19T06:47:40.864Z,1003.98
2017-12-19T06:48:47.737Z,1003.93
2017-12-19T06:49:54.660Z,1004.01
2017-12-19T06:51:01.532Z,1004.03
2017-12-19T06:52:08.452Z,1004.01
2017-12-19T06:53:15.366Z,1004.08
2017-12-19T06:54:22.212Z,1004.16
2017-12-19T06:55:29.085Z,1004.18
2017-12-19T06:56:36.014Z,1004.25
2017-12-19T06:57:42.892Z,1004.27
2017-12-19T06:58:49.809Z,1004.33
2017-12-19T06:59:56.618Z,1004.25
2017-12-19T07:01:03.588Z,1004.28
2017-12-19T07:02:10.516Z,1004.37
2017-12-19T07:03:17.384Z,1004.43
2017-12-19T07:04:24.270Z,1004.37
2017-12-19T07:05:31.149Z,1004.31
2017-12-19T07:06:37.961Z,1004.34
2017-12-19T07:07:44.953Z,1004.33
2017-12-19T07:08:51.789Z,1004.37
2017-12-19T07:09:58.721Z,1004.37
2017-12-19T07:11:05.585Z,1004.31
2017-12-19T07:12:12.540Z,1004.32
2017-12-19T07:13:19.390Z,1004.38
2017-12-19T07:14:26.284Z,1004.39
2017-12-19T07:15:33.145Z,1004.34
2017-12-19T07:16:40.076Z,1004.39
2017-12-19T07:17:46.886Z,1004.37
2017-12-19T07:18:53.705Z,1004.40
2017-12-19T07:20:00.502Z,1004.35
2017-12-19T07:21:07.349Z,1004.31
2017-12-19T07:22:14.128Z,1004.47
2017-12-19T07:23:20.951Z,1004.41
2017-12-19T07:24:27.764Z,1004.44
2017-12-19T07:25:34.664Z,1004.44
2017-12-19T07:26:41.516Z,1004.45
2017-12-19T07:27:48.280Z,1004.44
2017-12-19T07:28:55.076Z,1004.37
2017-12-19T07:30:01.922Z,1004.42
2017-12-19T07:31:08.836Z,1004.39
2017-12-19T07:32:15.684Z,1004.44
2017-12-19T07:33:22.625Z,1004.41
2017-12-19T07:34:29.397Z,1004.39
2017-12-19T07:35:36.212Z,1004.52
2017-12-19T07:36:43.049Z,1004.55
2017-12-19T07:37:49.820Z,1004.51
2017-12-19T07:38:56.649Z,1004.49
2017-12-19T07:40:03.432Z,1004.52
2017-12-19T07:41:10.281Z,1004.48
2017-12-19T07:42:17.077Z,1004.52
2017-12-19T07:43:23.937Z,1004.53
2017-12-19T07:44:30.701Z,1004.55
2017-12-19T07:45:37.477Z,1004.57
2017-12-19T07:46:44.237Z,1004.58
2017-12-19T07:47:51.050Z,1004.61
2017-12-19T07:48:57.906Z,1004.61
2017-12-19T07:50:04.641Z,1004.56
2017-12-19T07:51:11.482Z,1004.54
2017-12-19T07:52:18.392Z,1004.57
2017-12-19T07:53:25.184Z,1004.58
2017-12-19T07:54:31.931Z,1004.58
2017-12-19T07:55:38.849Z,1004.58
2017-12-19T07:56:45.596Z,1004.70
2017-12-19T07:57:52.366Z,1004.64
2017-12-19T07:58:59.194Z,1004.73
2017-12-19T08:00:05.953Z,1004.66
2017-12-19T08:01:12.825Z,1004.69
2017-12-19T08:02:19.583Z,1004.69
2017-12-19T08:03:26.333Z,1004.69
2017-12-19T08:04:33.109Z,1004.73
2017-12-19T08:05:39.849Z,1004.69
2017-12-19T08:06:46.592Z,1004.65
2017-12-19T08:07:53.413Z,1004.68
2017-12-19T08:09:00.132Z,1004.61
2017-12-19T08:10:07.073Z,1004.64
2017-12-19T08:11:13.823Z,1004.66
2017-12-19T08:12:20.651Z,1004.66
2017-12-19T08:13:27.428Z,1004.66
2017-12-19T08:14:34.181Z,1004.69
2017-12-19T08:15:40.932Z,1004.65
2017-12-19T08:16:47.851Z,1004.67
2017-12-19T08:17:54.653Z,1004.71
2017-12-19T08:19:01.472Z,1004.69
2017-12-19T08:20:08.301Z,1004.71
2017-12-19T08:21:15.077Z,1004.74
2017-12-19T08:22:21.888Z,1004.76
2017-12-19T08:23:28.641Z,1004.75
2017-12-19T08:24:35.397Z,1004.74
2017-12-19T08:25:42.208Z,1004.71
2017-12-19T08:26:49.044Z,1004.70
2017-12-19T08:27:55.781Z,1004.76
2017-12-19T08:29:02.551Z,1004.80
2017-12-19T08:30:09.309Z,1004.82
2017-12-19T08:31:16.245Z,1004.81
2017-12-19T08:32:23.082Z,1004.78
2017-12-19T08:33:29.847Z,1004.88
2017-12-19T08:34:36.597Z,1004.89
2017-12-19T08:35:43.361Z,1004.94
2017-12-19T08:36:50.116Z,1004.94
2017-12-19T08:37:56.860Z,1004.95
2017-12-19T08:39:03.608Z,1005.01
2017-12-19T08:40:10.360Z,1005.02
2017-12-19T08:41:17.092Z,1005.01
2017-12-19T08:42:23.992Z,1005.00
2017-12-19T08:43:30.768Z,1005.05
2017-12-19T08:44:37.500Z,1005.10
2017-12-19T08:45:44.289Z,1005.03
2017-12-19T08:46:51.078Z,1005.13
2017-12-19T08:47:57.817Z,1005.04
2017-12-19T08:49:04.590Z,1005.02
2017-12-19T08:50:11.449Z,1005.00
2017-12-19T08:51:18.239Z,1005.00
2017-12-19T08:52:24.994Z,1005.05
2017-12-19T08:53:31.760Z,1004.98
2017-12-19T08:54:38.529Z,1005.03
2017-12-19T08:55:45.277Z,1005.09
2017-12-19T08:56:52.128Z,1005.00
2017-12-19T08:57:58.853Z,1005.05
2017-12-19T08:59:05.628Z,1005.10
2017-12-19T09:00:12.378Z,1005.11
2017-12-19T09:01:19.134Z,1005.04
2017-12-19T09:02:25.937Z,1005.05
2017-12-19T09:03:32.689Z,1005.05
2017-12-19T09:04:39.499Z,1005.09
2017-12-19T09:05:46.604Z,1005.09
2017-12-19T09:06:53.360Z,1005.05
2017-12-19T09:08:00.110Z,1005.09
2017-12-19T09:09:06.829Z,1005.15
2017-12-19T09:10:13.645Z,1005.17
2017-12-19T09:11:20.412Z,1005.13
2017-12-19T09:12:27.184Z,1005.17
2017-12-19T09:13:33.918Z,1005.20
2017-12-19T09:14:40.677Z,1005.15
2017-12-19T09:15:47.448Z,1005.20
2017-12-19T09:16:54.177Z,1005.20
2017-12-19T09:18:00.971Z,1005.22
2017-12-19T09:19:07.734Z,1005.21
2017-12-19T09:20:14.563Z,1005.18
2017-12-19T09:21:21.304Z,1005.21
2017-12-19T09:22:28.096Z,1005.24
2017-12-19T09:23:34.842Z,1005.22
2017-12-19T09:24:41.602Z,1005.26
2017-12-19T09:25:48.468Z,1005.27
2017-12-19T09:26:55.229Z,1005.25
2017-12-19T09:28:02.021Z,1005.27
2017-12-19T09:29:08.870Z,1005.25
2017-12-19T09:30:15.625Z,1005.31
2017-12-19T09:31:22.389Z,1005.30
2017-12-19T09:32:29.180Z,1005.26
2017-12-19T09:33:35.900Z,1005.24
2017-12-19T09:34:42.641Z,1005.30
2017-12-19T09:35:49.404Z,1005.30
2017-12-19T09:36:56.141Z,1005.35
2017-12-19T09:38:02.905Z,1005.34
2017-12-19T09:39:09.646Z,1005.35
2017-12-19T09:40:16.417Z,1005.33
2017-12-19T09:41:23.150Z,1005.32
2017-12-19T09:42:29.897Z,1005.36
2017-12-19T09:43:36.677Z,1005.38
2017-12-19T09:44:43.560Z,1005.41
2017-12-19T09:45:50.284Z,1005.42
2017-12-19T09:46:57.131Z,1005.43
2017-12-19T09:48:03.898Z,1005.38
2017-12-19T09:49:10.701Z,1005.48
2017-12-19T09:50:17.469Z,1005.42
2017-12-19T09:51:24.221Z,1005.52
2017-12-19T09:52:30.965Z,1005.60
2017-12-19T09:53:37.756Z,1005.60
2017-12-19T09:54:44.512Z,1005.57
2017-12-19T09:55:51.296Z,1005.56
2017-12-19T09:56:58.005Z,1005.55
2017-12-19T09:58:04.785Z,1005.48
2017-12-19T09:59:11.528Z,1005.43
2017-12-19T10:00:18.292Z,1005.48
2017-12-19T10:01:25.030Z,1005.46
2017-12-19T10:02:31.846Z,1005.52
2017-12-19T10:03:38.614Z,1005.53
2017-12-19T10:04:45.413Z,1005.60
2017-12-19T10:05:52.253Z,1005.45
2017-12-19T10:06:59.014Z,1005.53
2017-12-19T10:08:05.772Z,1005.52
2017-12-19T10:09:12.538Z,1005.51
2017-12-19T10:10:19.312Z,1005.55
2017-12-19T10:11:26.056Z,1005.58
2017-12-19T10:12:32.789Z,1005.55
2017-12-19T10:13:39.530Z,1005.58
2017-12-19T10:14:46.264Z,1005.50
2017-12-19T10:15:53.021Z,1005.50
2017-12-19T10:16:59.747Z,1005.50
2017-12-19T10:18:06.546Z,1005.49
2017-12-19T10:19:13.293Z,1005.52
2017-12-19T10:20:20.081Z,1005.51
2017-12-19T10:21:26.850Z,1005.48
2017-12-19T10:22:33.717Z,1005.51
2017-12-19T10:23:40.541Z,1005.51
2017-12-19T10:24:47.424Z,1005.46
2017-12-19T10:25:54.308Z,1005.55
2017-12-19T10:27:01.221Z,1005.46
2017-12-19T10:28:08.073Z,1005.49
2017-12-19T10:29:14.977Z,1005.52
2017-12-19T10:30:21.901Z,1005.51
2017-12-19T10:31:28.733Z,1005.47
2017-12-19T10:32:35.505Z,1005.46
2017-12-19T10:33:42.325Z,1005.42
2017-12-19T10:34:49.085Z,1005.43
2017-12-19T10:35:55.857Z,1005.43
2017-12-19T10:37:02.596Z,1005.46
2017-12-19T10:38:09.401Z,1005.38
2017-12-19T10:39:16.125Z,1005.49
2017-12-19T10:40:22.885Z,1005.41
2017-12-19T10:41:29.713Z,1005.42
2017-12-19T10:42:36.497Z,1005.44
2017-12-19T10:43:43.329Z,1005.31
2017-12-19T10:44:50.061Z,1005.42
2017-12-19T10:45:56.921Z,1005.33
2017-12-19T10:47:03.647Z,1005.38
2017-12-19T10:48:10.366Z,1005.34
2017-12-19T10:49:17.108Z,1005.31
2017-12-19T10:50:23.830Z,1005.30
2017-12-19T10:51:30.629Z,1005.33
2017-12-19T10:52:37.369Z,1005.33
2017-12-19T10:53:44.093Z,1005.35
2017-12-19T10:54:50.835Z,1005.26
2017-12-19T10:55:57.688Z,1005.26
2017-12-19T10:57:04.428Z,1005.31
2017-12-19T10:58:11.184Z,1005.32
2017-12-19T10:59:17.937Z,1005.26
2017-12-19T11:00:24.733Z,1005.37
2017-12-19T11:01:31.889Z,1005.37
2017-12-19T11:02:38.624Z,1005.33
2017-12-19T11:03:45.356Z,1005.39
2017-12-19T11:04:52.151Z,1005.41
2017-12-19T11:05:58.953Z,1005.43
2017-12-19T11:07:05.718Z,1005.45
2017-12-19T11:08:12.496Z,1005.45
2017-12-19T11:09:19.378Z,1005.39
2017-12-19T11:10:26.237Z,1005.46
2017-12-19T11:11:33.029Z,1005.33
2017-12-19T11:12:39.797Z,1005.43
2017-12-19T11:13:46.561Z,1005.43
2017-12-19T11:14:53.353Z,1005.44
2017-12-19T11:16:00.205Z,1005.46
2017-12-19T11:17:06.997Z,1005.46
2017-12-19T11:18:13.781Z,1005.47
2017-12-19T11:19:20.628Z,1005.42
2017-12-19T11:20:27.388Z,1005.38
2017-12-19T11:21:34.161Z,1005.36
2017-12-19T11:22:41.069Z,1005.43
2017-12-19T11:23:47.821Z,1005.37
2017-12-19T11:24:54.813Z,1005.36
2017-12-19T11:26:01.766Z,1005.45
2017-12-19T11:27:08.785Z,1005.37
2017-12-19T11:28:15.808Z,1005.40
2017-12-19T11:29:22.845Z,1005.43
2017-12-19T11:30:29.748Z,1005.50
2017-12-19T11:31:36.608Z,1005.43
2017-12-19T11:32:43.545Z,1005.44
2017-12-19T11:33:50.422Z,1005.45
2017-12-19T11:34:57.402Z,1005.38
2017-12-19T11:36:04.318Z,1005.30
2017-12-19T11:37:11.333Z,1005.39
2017-12-19T11:38:19.201Z,1005.41
2017-12-19T11:39:25.100Z,1005.40
2017-12-19T11:40:32.038Z,1005.45
2017-12-19T11:41:38.873Z,1005.41
2017-12-19T11:42:45.717Z,1005.43
2017-12-19T11:43:52.468Z,1005.46
2017-12-19T11:44:59.272Z,1005.50
2017-12-19T11:46:06.053Z,1005.53
2017-12-19T11:47:12.844Z,1005.50
2017-12-19T11:48:19.700Z,1005.48
2017-12-19T11:49:26.520Z,1005.43
2017-12-19T11:50:33.263Z,1005.50
2017-12-19T11:51:40.104Z,1005.46
2017-12-19T11:52:46.936Z,1005.42
2017-12-19T11:53:53.753Z,1005.48
2017-12-19T11:55:00.560Z,1005.42
2017-12-19T11:56:07.351Z,1005.42
2017-12-19T11:57:14.324Z,1005.43
2017-12-19T11:58:21.123Z,1005.43
2017-12-19T11:59:27.929Z,1005.42
2017-12-19T12:00:34.761Z,1005.51
2017-12-19T12:01:41.597Z,1005.41
2017-12-19T12:02:48.437Z,1005.40
2017-12-19T12:03:55.279Z,1005.48
2017-12-19T12:05:02.084Z,1005.40
2017-12-19T12:06:08.974Z,1005.47
2017-12-19T12:07:15.748Z,1005.43
2017-12-19T12:08:22.621Z,1005.38
2017-12-19T12:09:29.466Z,1005.40
2017-12-19T12:10:36.268Z,1005.44
2017-12-19T12:11:43.063Z,1005.40
2017-12-19T12:12:49.872Z,1005.36
2017-12-19T12:13:56.698Z,1005.39
2017-12-19T12:15:03.459Z,1005.34
2017-12-19T12:16:10.311Z,1005.38
2017-12-19T12:17:17.067Z,1005.39
2017-12-19T12:18:23.828Z,1005.47
2017-12-19T12:19:30.756Z,1005.45
2017-12-19T12:20:37.505Z,1005.36
2017-12-19T12:21:44.260Z,1005.45
2017-12-19T12:22:51.177Z,1005.46
2017-12-19T12:23:58.000Z,1005.48
2017-12-19T12:25:04.862Z,1005.49
2017-12-19T12:26:11.645Z,1005.52
2017-12-19T12:27:18.445Z,1005.49
2017-12-19T12:28:25.224Z,1005.49
2017-12-19T12:29:32.126Z,1005.50
2017-12-19T12:30:38.904Z,1005.44
2017-12-19T12:31:45.683Z,1005.42
2017-12-19T12:32:52.468Z,1005.39
2017-12-19T12:33:59.268Z,1005.38
2017-12-19T12:35:06.090Z,1005.40
2017-12-19T12:36:12.880Z,1005.41
2017-12-19T12:37:19.669Z,1005.31
2017-12-19T12:38:26.565Z,1005.30
2017-12-19T12:39:33.312Z,1005.36
2017-12-19T12:40:40.110Z,1005.30
2017-12-19T12:41:46.877Z,1005.27
2017-12-19T12:42:53.717Z,1005.28
2017-12-19T12:44:00.488Z,1005.26
2017-12-19T12:45:07.273Z,1005.17
2017-12-19T12:46:14.188Z,1005.19
2017-12-19T12:47:21.032Z,1005.21
2017-12-19T12:48:27.765Z,1005.13
2017-12-19T12:52:49.925Z,1005.15
2017-12-19T12:53:56.737Z,1005.16
2017-12-19T12:55:03.486Z,1005.07
2017-12-19T12:56:10.244Z,1005.11
2017-12-19T12:57:16.993Z,1005.08
2017-12-19T12:58:23.862Z,1005.05
2017-12-19T12:59:30.620Z,1005.10
2017-12-19T13:00:37.388Z,1005.11
2017-12-19T13:01:44.290Z,1004.95
2017-12-19T13:02:51.240Z,1005.02
2017-12-19T13:03:58.105Z,1005.04
2017-12-19T13:05:04.904Z,1005.01
2017-12-19T13:06:11.677Z,1004.98
2017-12-19T13:07:18.693Z,1004.96
2017-12-19T13:08:25.563Z,1005.01
2017-12-19T13:09:32.502Z,1005.03
2017-12-19T13:10:39.281Z,1004.95
2017-12-19T13:11:46.062Z,1005.00
2017-12-19T13:12:52.941Z,1004.98
2017-12-19T13:13:59.712Z,1004.96
2017-12-19T13:15:06.572Z,1004.96
2017-12-19T13:16:13.420Z,1005.05
2017-12-19T13:17:20.366Z,1005.06
2017-12-19T13:18:27.266Z,1005.05
2017-12-19T13:19:34.173Z,1005.00
2017-12-19T13:20:40.981Z,1005.04
2017-12-19T13:21:47.785Z,1005.00
2017-12-19T13:22:54.561Z,1005.00
2017-12-19T13:24:01.365Z,1005.06
2017-12-19T13:25:08.127Z,1004.98
2017-12-19T13:26:14.889Z,1005.01
2017-12-19T13:27:21.704Z,1004.95
2017-12-19T13:28:28.476Z,1004.96
2017-12-19T13:29:35.326Z,1004.95
2017-12-19T13:30:42.112Z,1004.89
2017-12-19T13:31:49.105Z,1004.89